Time;durP1;ratioP1;P1;durP2;ratioP2;P2;SDS_P1;SDS_P2;PMS_P1;PMS_P2;Temp;Humidity;BMP_temperature;BMP_pressure;BME280_temperature;BME280_humidity;BME280_pressure;Samples;Min_cycle;Max_cycle;Signal;HPM_P1;HPM_P2
2021/06/12 00:02:18;;;;;;;10.07;9.03;;;;;;;;;;6206145;23;20788;-84
2021/06/12 00:04:44;;;;;;;16.80;15.33;;;;;;;;;;6232881;23;20409;-83
2021/06/12 00:07:10;;;;;;;19.70;17.80;;;;;;;;;;6231381;23;20369;-82
2021/06/12 00:09:36;;;;;;;13.73;12.73;;;;;;;;;;6232212;23;20832;-82
2021/06/12 00:12:03;;;;;;;13.60;12.50;;;;;;;;;;6204376;23;20374;-83
2021/06/12 00:14:35;;;;;;;9.23;8.50;;;;;;;;;;6231251;23;20350;-81
2021/06/12 00:17:01;;;;;;;26.07;23.43;;;;;;;;;;6231908;23;20366;-80
2021/06/12 00:19:27;;;;;;;23.17;19.27;;;;;;;;;;6232330;23;20453;-81
2021/06/12 00:21:53;;;;;;;18.70;16.87;;;;;;;;;;6231742;23;20908;-83
2021/06/12 00:24:19;;;;;;;18.60;16.77;;;;;;;;;;6206274;23;20512;-83
2021/06/12 00:26:45;;;;;;;13.20;11.90;;;;;;;;;;6231092;23;20370;-83
2021/06/12 00:29:14;;;;;;;9.93;8.50;;;;;;;;;;6205192;23;20441;-82
2021/06/12 00:31:40;;;;;;;13.20;12.20;;;;;;;;;;6230827;23;20377;-82
2021/06/12 00:34:06;;;;;;;14.03;12.77;;;;;;;;;;6203229;23;20409;-83
2021/06/12 00:36:32;;;;;;;19.97;18.20;;;;;;;;;;6203786;23;20393;-82
2021/06/12 00:39:01;;;;;;;11.97;10.87;;;;;;;;;;6230612;23;20380;-83
2021/06/12 00:41:27;;;;;;;12.17;11.00;;;;;;;;;;6203463;23;20419;-84
2021/06/12 00:43:53;;;;;;;10.60;9.57;;;;;;;;;;6230318;23;20456;-81
2021/06/12 00:46:19;;;;;;;22.67;20.57;;;;;;;;;;6177130;23;20477;-82
2021/06/12 00:48:46;;;;;;;15.07;13.77;;;;;;;;;;6230021;23;20501;-83
2021/06/12 00:51:13;;;;;;;14.73;13.50;;;;;;;;;;6203471;23;20393;-83
2021/06/12 00:53:42;;;;;;;50.50;46.03;;;;;;;;;;6231224;23;20401;-83
2021/06/12 00:56:08;;;;;;;29.80;27.30;;;;;;;;;;6180423;23;20397;-81
2021/06/12 00:58:36;;;;;;;17.77;16.00;;;;;;;;;;6232995;23;20693;-81
2021/06/12 01:01:02;;;;;;;9.40;8.50;;;;;;;;;;6235684;23;20405;-80
2021/06/12 01:03:29;;;;;;;8.30;7.43;;;;;;;;;;6233921;23;20374;-79
2021/06/12 01:05:58;;;;;;;26.83;24.23;;;;;;;;;;6238094;23;20400;-83
2021/06/12 01:08:24;;;;;;;21.97;20.10;;;;;;;;;;6233000;23;20366;-84
2021/06/12 01:10:50;;;;;;;10.30;9.30;;;;;;;;;;6233203;23;20389;-84
2021/06/12 01:13:39;;;;;;;13.50;7.83;;;;;;;;;;6232757;23;20476;-83
2021/06/12 01:16:24;;;;;;;6.87;6.17;;;;;;;;;;6206637;23;20373;-83
2021/06/12 01:18:50;;;;;;;9.37;8.33;;;;;;;;;;6206172;23;20366;-83
2021/06/12 01:21:19;;;;;;;7.20;6.70;;;;;;;;;;6232656;23;20699;-83
2021/06/12 01:24:00;;;;;;;7.20;6.60;;;;;;;;;;6206075;23;20402;-82
2021/06/12 01:26:34;;;;;;;6.47;6.07;;;;;;;;;;6229271;23;20374;-86
2021/06/12 01:29:09;;;;;;;7.00;6.30;;;;;;;;;;6231771;23;20351;-82
2021/06/12 01:31:36;;;;;;;7.60;7.07;;;;;;;;;;6203939;23;20385;-82
2021/06/12 01:34:04;;;;;;;7.20;6.60;;;;;;;;;;6202714;23;20416;-82
2021/06/12 01:36:30;;;;;;;7.00;6.30;;;;;;;;;;6180066;23;20386;-82
2021/06/12 01:38:58;;;;;;;7.77;7.17;;;;;;;;;;6230778;23;20377;-83
2021/06/12 01:41:26;;;;;;;7.93;6.40;;;;;;;;;;6203108;23;20441;-81
2021/06/12 01:43:54;;;;;;;6.67;6.27;;;;;;;;;;6203655;23;20479;-83
2021/06/12 01:46:20;;;;;;;7.53;6.83;;;;;;;;;;6178527;23;20374;-83
2021/06/12 01:48:47;;;;;;;6.63;6.00;;;;;;;;;;6204864;23;20373;-83
2021/06/12 01:51:13;;;;;;;6.57;6.07;;;;;;;;;;6231161;23;20384;-83
2021/06/12 01:53:41;;;;;;;7.77;7.07;;;;;;;;;;6202590;23;20405;-83
2021/06/12 01:56:08;;;;;;;7.07;5.73;;;;;;;;;;6231790;23;20370;-83
2021/06/12 01:58:37;;;;;;;8.87;8.07;;;;;;;;;;6204756;23;20538;-84
2021/06/12 02:01:03;;;;;;;7.40;6.90;;;;;;;;;;6232466;23;20419;-80
2021/06/12 02:03:29;;;;;;;5.83;5.43;;;;;;;;;;6204641;23;20428;-84
2021/06/12 02:05:56;;;;;;;7.40;6.90;;;;;;;;;;6203774;23;20390;-82
2021/06/12 02:08:22;;;;;;;7.07;6.47;;;;;;;;;;6231275;23;20373;-83
2021/06/12 02:10:49;;;;;;;6.53;6.03;;;;;;;;;;6204657;23;20402;-83
2021/06/12 02:13:16;;;;;;;7.90;7.30;;;;;;;;;;6203913;23;20402;-83
2021/06/12 02:15:46;;;;;;;8.53;7.70;;;;;;;;;;6231029;23;20368;-83
2021/06/12 02:18:12;;;;;;;7.23;6.63;;;;;;;;;;6179251;23;20413;-82
2021/06/12 02:20:39;;;;;;;7.00;6.50;;;;;;;;;;6230996;23;20424;-82
2021/06/12 02:23:07;;;;;;;6.90;6.40;;;;;;;;;;6230761;23;20571;-82
2021/06/12 02:25:33;;;;;;;6.40;5.90;;;;;;;;;;6228470;23;20377;-82
2021/06/12 02:28:01;;;;;;;6.87;6.30;;;;;;;;;;6203887;23;20452;-82
2021/06/12 02:30:29;;;;;;;7.30;6.60;;;;;;;;;;6205553;23;20836;-82
2021/06/12 02:35:35;;;;;;;7.73;7.17;;;;;;;;;;6103563;23;20396;-87
2021/06/12 02:38:02;;;;;;;8.57;7.00;;;;;;;;;;6123293;23;20392;-86
2021/06/12 02:40:28;;;;;;;7.23;6.63;;;;;;;;;;6099449;23;20516;-87
2021/06/12 02:42:54;;;;;;;7.90;7.20;;;;;;;;;;6123168;23;20370;-86
2021/06/12 02:45:20;;;;;;;7.03;6.50;;;;;;;;;;6116016;23;20408;-85
2021/06/12 02:47:54;;;;;;;11.47;8.73;;;;;;;;;;6106708;23;20520;-86
2021/06/12 02:50:21;;;;;;;10.00;9.13;;;;;;;;;;6104722;23;20385;-87
2021/06/12 02:52:50;;;;;;;8.73;8.00;;;;;;;;;;6104609;23;20361;-87
2021/06/12 02:55:16;;;;;;;7.63;6.80;;;;;;;;;;6082115;23;20411;-86
2021/06/12 02:57:46;;;;;;;11.33;7.97;;;;;;;;;;6108598;23;20459;-87
2021/06/12 03:00:13;;;;;;;7.53;7.00;;;;;;;;;;6107748;23;20562;-86
2021/06/12 03:02:40;;;;;;;7.10;6.70;;;;;;;;;;6103012;23;20449;-86
2021/06/12 03:05:08;;;;;;;7.43;6.83;;;;;;;;;;6105726;23;20909;-84
2021/06/12 03:07:35;;;;;;;8.10;7.30;;;;;;;;;;6103204;23;20392;-86
2021/06/12 03:10:02;;;;;;;7.50;6.90;;;;;;;;;;6104278;23;20396;-86
2021/06/12 03:12:30;;;;;;;6.60;6.10;;;;;;;;;;6104394;23;20389;-85
2021/06/12 03:14:57;;;;;;;8.33;7.63;;;;;;;;;;6103206;23;20402;-86
2021/06/12 03:17:24;;;;;;;6.37;5.90;;;;;;;;;;6103589;23;20853;-87
2021/06/12 03:19:50;;;;;;;6.67;6.23;;;;;;;;;;6103155;23;20393;-86
2021/06/12 03:22:16;;;;;;;6.80;6.30;;;;;;;;;;6103538;23;20474;-85
2021/06/12 03:24:42;;;;;;;5.50;5.10;;;;;;;;;;6111107;23;20403;-85
2021/06/12 03:27:09;;;;;;;6.70;5.73;;;;;;;;;;6120541;23;20432;-84
2021/06/12 03:29:35;;;;;;;6.23;5.73;;;;;;;;;;6117969;23;20396;-86
2021/06/12 03:32:02;;;;;;;6.53;6.03;;;;;;;;;;6077825;23;20460;-86
2021/06/12 03:34:28;;;;;;;5.60;5.20;;;;;;;;;;6100010;23;20424;-85
2021/06/12 03:36:55;;;;;;;4.83;4.50;;;;;;;;;;6100460;23;20384;-84
2021/06/12 03:39:21;;;;;;;5.33;4.90;;;;;;;;;;6102678;23;20385;-86
2021/06/12 03:41:47;;;;;;;5.77;5.37;;;;;;;;;;6103410;23;20470;-86
2021/06/12 03:44:14;;;;;;;5.47;4.97;;;;;;;;;;6102296;23;20622;-84
2021/06/12 03:46:43;;;;;;;5.70;5.30;;;;;;;;;;6103216;23;20381;-85
2021/06/12 03:49:11;;;;;;;7.20;5.60;;;;;;;;;;6107474;23;20345;-86
2021/06/12 03:51:38;;;;;;;5.83;5.30;;;;;;;;;;6080589;23;20394;-85
2021/06/12 03:54:06;;;;;;;7.07;5.43;;;;;;;;;;6104806;23;20398;-85
2021/06/12 03:56:33;;;;;;;6.10;5.60;;;;;;;;;;6078671;23;20374;-85
2021/06/12 03:59:00;;;;;;;6.70;6.27;;;;;;;;;;6102968;23;20381;-85
2021/06/12 04:01:27;;;;;;;5.73;5.27;;;;;;;;;;6103363;23;20482;-86
2021/06/12 04:03:53;;;;;;;5.60;5.20;;;;;;;;;;6105056;23;20737;-86
2021/06/12 04:06:20;;;;;;;5.50;5.10;;;;;;;;;;6109029;23;20452;-84
2021/06/12 04:08:47;;;;;;;6.60;6.00;;;;;;;;;;6084008;23;20386;-87
2021/06/12 04:11:13;;;;;;;5.13;4.83;;;;;;;;;;6106424;23;20401;-84
2021/06/12 04:13:39;;;;;;;5.60;5.20;;;;;;;;;;6107818;23;20404;-87
2021/06/12 04:16:06;;;;;;;4.53;4.20;;;;;;;;;;6081268;23;20382;-86
2021/06/12 04:18:32;;;;;;;5.30;5.00;;;;;;;;;;6105632;23;20462;-87
2021/06/12 04:20:58;;;;;;;5.07;4.77;;;;;;;;;;6106904;23;20406;-87
2021/06/12 04:23:24;;;;;;;7.70;5.43;;;;;;;;;;6111151;23;20756;-85
2021/06/12 04:25:50;;;;;;;5.30;4.97;;;;;;;;;;6123863;23;20416;-87
2021/06/12 04:28:16;;;;;;;5.57;5.17;;;;;;;;;;6123780;23;20381;-87
2021/06/12 04:30:43;;;;;;;4.50;4.20;;;;;;;;;;6124631;23;20383;-86
2021/06/12 04:33:09;;;;;;;5.27;4.87;;;;;;;;;;6122264;23;20390;-85
2021/06/12 04:35:35;;;;;;;5.43;5.10;;;;;;;;;;6111688;23;20481;-85
2021/06/12 04:38:07;;;;;;;5.40;5.00;;;;;;;;;;6101768;23;20378;-85
2021/06/12 04:40:35;;;;;;;5.43;5.03;;;;;;;;;;6085779;23;20413;-85
2021/06/12 04:43:01;;;;;;;5.00;4.60;;;;;;;;;;6081507;23;20393;-86
2021/06/12 04:45:28;;;;;;;3.90;3.70;;;;;;;;;;6107299;23;20505;-86
2021/06/12 04:47:55;;;;;;;5.50;5.10;;;;;;;;;;6107022;23;20464;-86
2021/06/12 04:50:21;;;;;;;4.20;3.90;;;;;;;;;;6099803;23;20763;-86
2021/06/12 04:52:47;;;;;;;4.77;4.37;;;;;;;;;;6102127;23;20725;-86
2021/06/12 04:55:16;;;;;;;4.70;4.40;;;;;;;;;;6053269;23;20403;-85
2021/06/12 04:57:42;;;;;;;3.80;3.60;;;;;;;;;;6101613;23;20459;-86
2021/06/12 05:00:10;;;;;;;5.90;4.20;;;;;;;;;;6074967;23;20953;-86
2021/06/12 05:02:38;;;;;;;4.77;4.43;;;;;;;;;;6099736;23;20399;-85
2021/06/12 05:05:04;;;;;;;9.10;5.40;;;;;;;;;;6075247;23;20412;-86
2021/06/12 05:07:30;;;;;;;4.83;4.43;;;;;;;;;;6099384;23;20428;-86
2021/06/12 05:09:56;;;;;;;4.93;4.60;;;;;;;;;;6102806;23;20674;-86
2021/06/12 05:12:24;;;;;;;5.10;4.80;;;;;;;;;;6077684;23;20475;-85
2021/06/12 05:14:52;;;;;;;5.40;4.40;;;;;;;;;;6102232;23;20404;-85
2021/06/12 05:17:21;;;;;;;4.63;4.23;;;;;;;;;;6105749;23;20346;-86
2021/06/12 05:19:47;;;;;;;4.40;4.10;;;;;;;;;;6105135;23;20362;-86
2021/06/12 05:22:13;;;;;;;5.17;4.73;;;;;;;;;;6105001;23;20476;-87
2021/06/12 05:24:40;;;;;;;3.90;3.60;;;;;;;;;;6109014;23;20398;-86
2021/06/12 05:27:07;;;;;;;4.77;4.47;;;;;;;;;;6107819;23;20388;-85
2021/06/12 05:29:33;;;;;;;4.00;3.80;;;;;;;;;;6082159;23;20452;-84
2021/06/12 05:31:59;;;;;;;4.17;3.93;;;;;;;;;;6113028;23;20374;-86
2021/06/12 05:34:26;;;;;;;5.73;5.33;;;;;;;;;;6109786;23;20495;-86
2021/06/12 05:36:52;;;;;;;3.27;3.07;;;;;;;;;;6109128;23;20401;-85
2021/06/12 05:39:18;;;;;;;4.10;3.80;;;;;;;;;;6108751;23;20394;-86
2021/06/12 05:41:44;;;;;;;6.60;4.43;;;;;;;;;;6082217;23;20499;-85
2021/06/12 05:44:10;;;;;;;5.60;5.10;;;;;;;;;;6082752;23;20461;-86
2021/06/12 05:46:36;;;;;;;3.97;3.67;;;;;;;;;;6105646;23;20460;-86
2021/06/12 05:49:05;;;;;;;4.00;3.80;;;;;;;;;;6082787;23;20385;-84
2021/06/12 05:51:31;;;;;;;3.90;3.63;;;;;;;;;;6106086;23;20405;-86
2021/06/12 05:53:57;;;;;;;4.40;4.00;;;;;;;;;;6106859;23;20405;-85
2021/06/12 05:56:23;;;;;;;4.23;3.93;;;;;;;;;;6102344;23;20373;-85
2021/06/12 05:58:49;;;;;;;4.23;3.93;;;;;;;;;;6103505;23;20476;-86
2021/06/12 06:01:15;;;;;;;4.30;3.90;;;;;;;;;;6100795;23;20760;-85
2021/06/12 06:03:41;;;;;;;5.23;4.20;;;;;;;;;;6103310;23;20476;-86
2021/06/12 06:06:07;;;;;;;8.07;7.47;;;;;;;;;;6102664;23;20381;-87
2021/06/12 06:08:34;;;;;;;5.13;4.73;;;;;;;;;;6102460;23;20730;-84
2021/06/12 06:11:04;;;;;;;5.07;4.77;;;;;;;;;;6102349;23;20453;-85
2021/06/12 06:13:35;;;;;;;5.47;4.70;;;;;;;;;;6095744;23;20401;-87
2021/06/12 06:16:05;;;;;;;4.87;4.47;;;;;;;;;;6099535;23;20361;-86
2021/06/12 06:18:31;;;;;;;4.90;4.53;;;;;;;;;;6123207;23;20389;-87
2021/06/12 06:20:57;;;;;;;10.70;4.30;;;;;;;;;;6122178;23;20441;-87
2021/06/12 06:23:23;;;;;;;5.43;5.00;;;;;;;;;;6110873;23;20414;-87
2021/06/12 06:25:55;;;;;;;5.57;5.00;;;;;;;;;;6109500;23;20378;-88
2021/06/12 06:28:22;;;;;;;4.20;3.90;;;;;;;;;;6108714;23;20864;-87
2021/06/12 06:30:48;;;;;;;5.20;4.87;;;;;;;;;;6083752;23;20389;-87
2021/06/12 06:33:14;;;;;;;5.80;5.40;;;;;;;;;;6109058;23;20445;-87
2021/06/12 06:35:40;;;;;;;4.90;4.33;;;;;;;;;;6111135;23;20732;-87
2021/06/12 06:38:06;;;;;;;5.73;5.23;;;;;;;;;;6119586;23;20381;-87
2021/06/12 06:40:32;;;;;;;4.70;4.30;;;;;;;;;;6118186;23;20428;-87
2021/06/12 06:42:59;;;;;;;5.20;4.70;;;;;;;;;;6115864;23;20369;-86
2021/06/12 06:45:25;;;;;;;5.00;4.60;;;;;;;;;;6086444;23;20392;-87
2021/06/12 06:47:51;;;;;;;5.03;4.63;;;;;;;;;;6106753;23;20480;-85
2021/06/12 06:50:17;;;;;;;5.60;4.30;;;;;;;;;;6108030;23;20381;-84
2021/06/12 06:52:44;;;;;;;6.10;5.60;;;;;;;;;;6106756;23;20775;-85
2021/06/12 06:55:10;;;;;;;6.23;5.73;;;;;;;;;;6109282;23;20424;-86
2021/06/12 06:57:37;;;;;;;5.70;5.10;;;;;;;;;;6105728;23;20381;-86
2021/06/12 07:00:04;;;;;;;5.90;4.80;;;;;;;;;;6108650;23;20468;-86
2021/06/12 07:02:32;;;;;;;5.70;4.90;;;;;;;;;;6105764;23;20414;-85
2021/06/12 07:04:58;;;;;;;4.43;4.03;;;;;;;;;;6106480;23;20861;-85
2021/06/12 07:07:24;;;;;;;6.60;6.10;;;;;;;;;;6106027;23;20382;-87
2021/06/12 07:09:53;;;;;;;5.20;4.70;;;;;;;;;;6080553;23;20425;-86
2021/06/12 07:12:20;;;;;;;6.67;6.17;;;;;;;;;;6107530;23;20373;-86
2021/06/12 07:14:46;;;;;;;9.43;7.87;;;;;;;;;;6082220;23;20408;-87
2021/06/12 07:17:12;;;;;;;5.23;4.83;;;;;;;;;;6109850;23;20404;-86
2021/06/12 07:19:38;;;;;;;6.20;5.77;;;;;;;;;;6106878;23;20438;-87
2021/06/12 07:22:05;;;;;;;5.17;4.77;;;;;;;;;;6082978;23;20423;-84
2021/06/12 07:24:32;;;;;;;4.97;4.57;;;;;;;;;;6107869;23;20456;-86
2021/06/12 07:26:58;;;;;;;7.10;4.87;;;;;;;;;;6084983;23;20385;-87
2021/06/12 07:29:24;;;;;;;4.80;4.40;;;;;;;;;;6108889;23;20373;-86
2021/06/12 07:31:51;;;;;;;6.97;5.43;;;;;;;;;;6108558;23;20376;-85
2021/06/12 07:34:17;;;;;;;6.67;6.10;;;;;;;;;;6105789;23;20423;-85
2021/06/12 07:36:51;;;;;;;7.57;6.97;;;;;;;;;;6106910;23;20408;-85
2021/06/12 07:39:26;;;;;;;7.37;6.87;;;;;;;;;;6106874;23;20376;-86
2021/06/12 07:42:01;;;;;;;8.00;7.20;;;;;;;;;;6131949;23;20463;-87
2021/06/12 07:44:27;;;;;;;7.00;6.40;;;;;;;;;;6082519;23;20396;-85
2021/06/12 07:46:57;;;;;;;7.80;7.20;;;;;;;;;;6106823;23;20377;-84
2021/06/12 07:49:23;;;;;;;8.70;8.00;;;;;;;;;;6106777;23;20379;-87
2021/06/12 07:51:49;;;;;;;8.57;7.83;;;;;;;;;;6083509;23;20378;-86
2021/06/12 07:54:17;;;;;;;8.93;8.03;;;;;;;;;;6105895;23;20704;-86
2021/06/12 07:56:46;;;;;;;8.53;7.87;;;;;;;;;;6105644;23;20754;-85
2021/06/12 07:59:13;;;;;;;8.03;7.30;;;;;;;;;;6113052;23;20374;-86
2021/06/12 08:01:39;;;;;;;8.40;7.77;;;;;;;;;;6122438;23;20427;-85
2021/06/12 08:04:10;;;;;;;9.27;8.37;;;;;;;;;;6124259;23;20431;-88
2021/06/12 08:06:40;;;;;;;13.50;9.37;;;;;;;;;;6118094;23;20389;-86
2021/06/12 08:09:12;;;;;;;9.83;9.00;;;;;;;;;;6097290;23;20402;-86
2021/06/12 08:11:41;;;;;;;12.77;11.63;;;;;;;;;;6110436;23;20373;-87
2021/06/12 08:14:07;;;;;;;11.73;10.10;;;;;;;;;;6109017;23;20424;-86
2021/06/12 08:17:00;;;;;;;10.47;9.57;;;;;;;;;;6109696;23;20468;-88
2021/06/12 08:19:26;;;;;;;9.13;8.30;;;;;;;;;;6113559;23;20393;-86
2021/06/12 08:21:52;;;;;;;9.73;8.60;;;;;;;;;;6113258;23;20449;-86
2021/06/12 08:24:30;;;;;;;8.87;8.20;;;;;;;;;;6108750;23;20468;-86
2021/06/12 08:26:57;;;;;;;10.50;9.20;;;;;;;;;;6110114;23;20440;-86
2021/06/12 08:29:43;;;;;;;9.93;9.03;;;;;;;;;;6085439;23;20374;-87
2021/06/12 08:32:12;;;;;;;12.20;9.47;;;;;;;;;;6111974;23;20373;-87
2021/06/12 08:34:38;;;;;;;11.27;10.30;;;;;;;;;;6145188;23;20452;-86
2021/06/12 08:37:04;;;;;;;10.90;10.00;;;;;;;;;;6232833;23;20389;-86
2021/06/12 08:39:31;;;;;;;12.20;11.20;;;;;;;;;;6212930;23;20385;-86
2021/06/12 08:41:58;;;;;;;13.17;12.00;;;;;;;;;;6239526;23;20401;-85
2021/06/12 08:44:25;;;;;;;10.10;9.30;;;;;;;;;;6203440;23;20470;-85
2021/06/12 08:46:51;;;;;;;9.30;8.50;;;;;;;;;;6208154;23;20377;-85
2021/06/12 08:49:18;;;;;;;9.40;8.60;;;;;;;;;;6209015;23;20367;-87
2021/06/12 08:51:45;;;;;;;9.23;8.50;;;;;;;;;;6204470;23;20402;-85
2021/06/12 08:54:15;;;;;;;11.50;10.40;;;;;;;;;;6177918;23;20876;-86
2021/06/12 08:56:42;;;;;;;14.17;12.93;;;;;;;;;;6176719;23;20367;-87
2021/06/12 08:59:08;;;;;;;9.90;9.17;;;;;;;;;;6203816;23;20363;-85
2021/06/12 09:01:34;;;;;;;9.27;8.47;;;;;;;;;;6202513;23;20419;-85
2021/06/12 09:04:00;;;;;;;10.50;9.53;;;;;;;;;;6173622;23;20408;-84
2021/06/12 09:06:26;;;;;;;10.70;9.80;;;;;;;;;;6199711;23;20371;-86
2021/06/12 09:08:52;;;;;;;12.30;11.13;;;;;;;;;;6196032;23;20409;-86
2021/06/12 09:11:19;;;;;;;11.07;10.20;;;;;;;;;;6204220;23;20378;-87
2021/06/12 09:13:53;;;;;;;9.43;8.63;;;;;;;;;;6175185;23;20383;-86
2021/06/12 09:16:22;;;;;;;9.73;8.93;;;;;;;;;;6150475;23;20375;-85
2021/06/12 09:18:49;;;;;;;10.17;9.07;;;;;;;;;;6203877;23;20445;-85
2021/06/12 09:21:45;;;;;;;10.70;9.50;;;;;;;;;;6199819;23;20730;-86
2021/06/12 09:24:21;;;;;;;11.00;10.10;;;;;;;;;;6187846;23;20399;-87
2021/06/12 09:26:50;;;;;;;11.23;10.33;;;;;;;;;;6179015;23;20370;-86
2021/06/12 09:29:20;;;;;;;12.57;11.17;;;;;;;;;;6212407;23;20385;-86
2021/06/12 09:31:48;;;;;;;13.07;11.97;;;;;;;;;;6213470;23;20375;-85
2021/06/12 09:34:15;;;;;;;17.73;14.20;;;;;;;;;;6203512;23;20465;-83
2021/06/12 09:36:41;;;;;;;17.73;14.30;;;;;;;;;;6175613;23;20359;-86
2021/06/12 09:39:09;;;;;;;20.23;15.90;;;;;;;;;;6173102;23;20410;-87
2021/06/12 09:41:35;;;;;;;21.27;18.77;;;;;;;;;;6201306;23;20421;-86
2021/06/12 09:44:01;;;;;;;27.23;19.10;;;;;;;;;;6149821;23;20382;-86
2021/06/12 09:46:35;;;;;;;24.07;21.57;;;;;;;;;;6198597;23;20880;-86
2021/06/12 09:49:01;;;;;;;24.93;22.47;;;;;;;;;;6171694;23;20382;-86
2021/06/12 09:51:27;;;;;;;29.07;23.60;;;;;;;;;;6147475;23;20377;-85
2021/06/12 09:53:58;;;;;;;24.87;22.47;;;;;;;;;;6171877;23;20374;-85
2021/06/12 09:56:27;;;;;;;24.33;22.23;;;;;;;;;;6197283;23;20510;-84
2021/06/12 09:58:54;;;;;;;25.10;22.07;;;;;;;;;;6198760;23;20384;-84
2021/06/12 10:01:23;;;;;;;25.13;22.63;;;;;;;;;;6204084;23;20402;-83
2021/06/12 10:03:49;;;;;;;22.07;20.07;;;;;;;;;;6197563;23;20386;-86
2021/06/12 10:06:20;;;;;;;23.30;21.17;;;;;;;;;;6172893;23;20451;-85
2021/06/12 10:08:50;;;;;;;26.23;23.97;;;;;;;;;;6198881;23;20425;-83
2021/06/12 10:11:18;;;;;;;29.67;26.73;;;;;;;;;;6172559;23;20385;-84
2021/06/12 10:13:45;;;;;;;23.60;21.53;;;;;;;;;;6199501;23;20382;-85
2021/06/12 10:16:11;;;;;;;20.73;18.93;;;;;;;;;;6170040;23;20421;-87
2021/06/12 10:18:40;;;;;;;21.03;19.10;;;;;;;;;;6196995;23;20383;-85
2021/06/12 10:21:06;;;;;;;20.20;18.03;;;;;;;;;;6197374;23;20440;-85
2021/06/12 10:23:33;;;;;;;18.10;16.60;;;;;;;;;;6197712;23;20382;-85
2021/06/12 10:26:02;;;;;;;20.47;18.63;;;;;;;;;;6144599;23;20406;-84
2021/06/12 10:28:28;;;;;;;20.90;19.03;;;;;;;;;;6169042;23;20379;-83
2021/06/12 10:30:54;;;;;;;20.27;18.70;;;;;;;;;;6171876;23;20405;-83
2021/06/12 10:33:20;;;;;;;23.13;21.17;;;;;;;;;;6169348;23;20456;-83
2021/06/12 10:35:47;;;;;;;24.63;19.80;;;;;;;;;;6172698;23;20451;-85
2021/06/12 10:38:14;;;;;;;14.97;13.70;;;;;;;;;;6171466;23;20387;-86
2021/06/12 10:40:51;;;;;;;16.53;15.13;;;;;;;;;;6172558;23;20482;-86
2021/06/12 10:43:18;;;;;;;12.67;11.77;;;;;;;;;;6199385;23;20417;-84
2021/06/12 10:45:48;;;;;;;13.10;12.00;;;;;;;;;;6199148;23;20382;-85
2021/06/12 10:48:40;;;;;;;13.73;12.73;;;;;;;;;;6197693;23;20374;-86
2021/06/12 10:51:07;;;;;;;12.67;11.57;;;;;;;;;;6197814;23;20386;-85
2021/06/12 10:53:33;;;;;;;11.30;10.40;;;;;;;;;;6197846;23;20367;-86
2021/06/12 10:56:07;;;;;;;10.70;9.90;;;;;;;;;;6170796;23;20398;-84
2021/06/12 10:58:36;;;;;;;8.73;8.13;;;;;;;;;;6172290;23;20467;-87
2021/06/12 11:01:16;;;;;;;11.03;9.93;;;;;;;;;;6200211;23;20407;-86
2021/06/12 11:04:12;;;;;;;8.13;7.43;;;;;;;;;;6197398;23;20373;-86
2021/06/12 11:09:14;;;;;;;10.83;10.03;;;;;;;;;;6196332;23;20386;-84
2021/06/12 11:11:57;;;;;;;8.37;7.47;;;;;;;;;;6174692;23;20370;-86
2021/06/12 11:14:23;;;;;;;7.93;7.20;;;;;;;;;;6143631;23;20418;-87
2021/06/12 11:17:11;;;;;;;7.10;6.70;;;;;;;;;;6195688;23;20469;-85
2021/06/12 11:19:48;;;;;;;7.83;7.13;;;;;;;;;;6196154;23;20385;-84
2021/06/12 11:22:37;;;;;;;7.50;6.93;;;;;;;;;;6199238;23;20393;-88
2021/06/12 11:25:13;;;;;;;7.20;6.70;;;;;;;;;;6160605;23;20399;-86
2021/06/12 11:27:49;;;;;;;7.43;6.90;;;;;;;;;;6174289;23;20446;-87
2021/06/12 11:30:19;;;;;;;6.50;6.00;;;;;;;;;;6176636;23;20960;-87
2021/06/12 11:32:58;;;;;;;6.47;5.93;;;;;;;;;;6174754;23;20402;-86
2021/06/12 11:35:42;;;;;;;9.50;6.87;;;;;;;;;;6200100;23;20410;-86
2021/06/12 11:38:15;;;;;;;7.27;6.67;;;;;;;;;;6175413;23;20386;-88
2021/06/12 11:40:51;;;;;;;10.33;9.50;;;;;;;;;;6172073;23;20433;-88
2021/06/12 11:43:47;;;;;;;6.67;6.27;;;;;;;;;;6174274;23;20410;-88
2021/06/12 11:46:25;;;;;;;6.40;6.00;;;;;;;;;;6158398;23;20387;-88
2021/06/12 11:48:52;;;;;;;7.37;6.70;;;;;;;;;;6199931;23;20366;-88
2021/06/12 11:51:20;;;;;;;6.70;6.20;;;;;;;;;;6201109;23;20371;-87
2021/06/12 11:54:06;;;;;;;6.03;5.53;;;;;;;;;;6154034;23;20367;-86
2021/06/12 11:56:33;;;;;;;5.80;5.30;;;;;;;;;;6180416;23;20371;-87
2021/06/12 11:59:03;;;;;;;6.40;5.10;;;;;;;;;;6183203;23;20385;-89
2021/06/12 12:01:41;;;;;;;7.33;6.83;;;;;;;;;;6184668;23;20902;-87
2021/06/12 12:04:08;;;;;;;5.90;5.50;;;;;;;;;;6185194;23;20396;-87
2021/06/12 12:06:35;;;;;;;5.90;5.40;;;;;;;;;;6187239;23;20366;-86
2021/06/12 12:09:02;;;;;;;6.23;5.80;;;;;;;;;;6187145;23;20461;-88
2021/06/12 12:11:28;;;;;;;9.63;8.63;;;;;;;;;;6212281;23;20379;-88
2021/06/12 12:14:17;;;;;;;5.83;5.43;;;;;;;;;;6211177;23;20363;-89
2021/06/12 12:16:45;;;;;;;7.77;6.37;;;;;;;;;;6161789;23;20380;-87
2021/06/12 12:19:11;;;;;;;5.10;4.70;;;;;;;;;;6184809;23;20374;-87
2021/06/12 12:21:38;;;;;;;6.97;4.07;;;;;;;;;;6175074;23;20512;-88
2021/06/12 12:24:08;;;;;;;4.80;3.77;;;26.40;88.10;;;;;;6150175;23;20374;-86
2021/06/12 12:26:35;;;;;;;4.67;4.20;;;;;;;;;;6201997;23;20381;-87
2021/06/12 12:29:06;;;;;;;7.00;4.00;;;;;;;;;;6200422;23;20381;-84
2021/06/12 12:31:32;;;;;;;4.33;4.03;;;;;;;;;;6201249;23;20666;-85
2021/06/12 12:33:59;;;;;;;4.63;4.23;;;;;;;;;;6203188;23;20362;-85
2021/06/12 12:36:26;;;;;;;12.57;11.37;;;;;;;;;;6184092;23;20390;-88
2021/06/12 12:38:56;;;;;;;5.73;5.33;;;;;;;;;;6202476;23;20361;-86
2021/06/12 12:41:23;;;;;;;8.63;5.93;;;;;;;;;;6176042;23;20466;-88
2021/06/12 12:43:49;;;;;;;5.53;5.13;;;;;;;;;;6176463;23;20378;-87
2021/06/12 12:46:18;;;;;;;5.63;5.10;;;;;;;;;;6203151;23;20374;-88
2021/06/12 12:48:44;;;;;;;5.30;4.90;;;;;;;;;;6206817;23;20357;-85
2021/06/12 12:51:10;;;;;;;6.90;6.27;;;;;;;;;;6178122;23;20362;-86
2021/06/12 12:53:40;;;;;;;4.90;4.50;;;;;;;;;;6180716;23;20394;-86
2021/06/12 12:56:09;;;;;;;5.00;4.60;;;;;;;;;;6158037;23;20406;-87
2021/06/12 12:58:45;;;;;;;4.93;4.63;;;;;;;;;;6182396;23;20386;-88
2021/06/12 13:08:39;;;;;;;5.93;5.30;;;;;;;;;;6056799;23;20395;-88
2021/06/12 13:11:42;;;;;;;6.80;5.30;;;;;;;;;;6054740;23;20929;-86
2021/06/12 13:18:12;;;;;;;5.53;5.10;;;;;;;;;;6064844;23;20372;-87
2021/06/12 13:31:55;;;;;;;5.47;4.93;;;;;;;;;;5911874;24;20519;-87
2021/06/12 13:34:22;;;;;;;6.77;6.17;;;;;;;;;;5906229;24;20445;-86
2021/06/12 13:36:55;;;;;;;6.80;6.30;;;;;;;;;;5972269;23;20380;-87
2021/06/12 13:39:35;;;;;;;6.43;5.90;;;;;;;;;;6009137;23;20391;-89
2021/06/12 13:42:20;;;;;;;6.53;6.03;;;;;;;;;;6077799;23;20379;-86
2021/06/12 13:45:05;;;;;;;6.40;5.90;;;;;;;;;;6070796;23;20397;-87
2021/06/12 13:47:31;;;;;;;6.83;6.33;;;;;;;;;;6119237;23;20370;-88
2021/06/12 13:49:57;;;;;;;10.67;6.10;;;;;;;;;;6069216;23;20416;-87
2021/06/12 13:52:29;;;;;;;7.90;6.50;;;;;;;;;;6092866;23;20367;-86
2021/06/12 13:55:08;;;;;;;;;;;;;;;;;;;;;
2021/06/12 13:57:45;;;;;;;7.20;6.03;;;;;;;;;;6119489;23;20393;-87
2021/06/12 14:00:15;;;;;;;6.77;6.13;;;;;;;;;;6067837;23;20400;-86
2021/06/12 14:02:43;;;;;;;7.07;6.47;;;;;;;;;;6090573;23;20903;-87
2021/06/12 14:05:10;;;;;;;6.47;5.93;;;;;;;;;;6066016;23;20409;-86
2021/06/12 14:07:40;;;;;;;6.23;5.73;;;;;;;;;;6150579;23;20382;-87
2021/06/12 14:10:07;;;;;;;7.33;6.10;;;;;;;;;;6179359;23;20401;-88
2021/06/12 14:12:35;;;;;;;9.20;6.33;;;;;;;;;;6179805;23;20374;-87
2021/06/12 14:15:09;;;;;;;7.40;6.70;;;;;;;;;;6154413;23;20394;-87
2021/06/12 14:17:35;;;;;;;7.50;6.90;;;;;;;;;;6178386;23;20352;-86
2021/06/12 14:20:03;;;;;;;6.67;6.10;;;;;;;;;;6206106;23;20353;-88
2021/06/12 14:22:42;;;;;;;7.30;6.77;;;;;;;;;;6176595;23;20376;-87
2021/06/12 14:25:18;;;;;;;8.13;7.63;;;;;;;;;;6208636;23;20401;-86
2021/06/12 14:27:50;;;;;;;6.50;5.90;;;;;;;;;;6184430;23;20361;-86
2021/06/12 14:30:46;;;;;;;6.13;5.60;;;;;;;;;;6162030;23;20366;-85
2021/06/12 14:33:30;;;;;;;5.23;4.77;;;;;;;;;;6158196;23;20378;-86
2021/06/12 14:35:56;;;;;;;5.50;4.90;;;;;;;;;;6222548;22;20841;-84
2021/06/12 14:38:22;;;;;;;6.00;5.03;;;;;;;;;;6171743;23;20377;-84
2021/06/12 14:40:51;;;;;;;5.13;4.57;;;;;;;;;;6197782;23;20419;-85
2021/06/12 14:43:18;;;;;;;5.70;5.17;;;;;;;;;;6225428;23;20426;-81
2021/06/12 14:45:44;;;;;;;5.10;4.70;;;;;;;;;;6181323;23;20397;-85
2021/06/12 14:48:10;;;;;;;5.90;4.70;;;;;;;;;;6168125;23;20829;-84
2021/06/12 14:50:37;;;;;;;5.60;5.20;;;;;;;;;;6168734;23;20370;-83
2021/06/12 14:53:03;;;;;;;5.17;4.77;;;;;;;;;;6194399;23;20379;-85
2021/06/12 14:55:29;;;;;;;3.63;3.03;;;;;;;;;;6193714;23;20402;-85
2021/06/12 14:57:56;;;;;;;5.10;3.73;;;;;;;;;;6142398;23;20405;-84
2021/06/12 15:00:22;;;;;;;9.30;3.70;;;;;;;;;;6189828;23;20923;-85
2021/06/12 15:02:48;;;;;;;5.00;3.60;;;;;;;;;;6167485;23;20383;-85
2021/06/12 15:05:14;;;;;;;6.13;3.83;;;;;;;;;;6166344;23;20418;-84
2021/06/12 15:07:40;;;;;;;4.70;3.77;;;;;;;;;;6193755;23;20370;-84
2021/06/12 15:10:07;;;;;;;5.70;4.00;;;;;;;;;;6141580;23;20712;-86
2021/06/12 15:12:34;;;;;;;6.20;3.13;;;;;;;;;;6165736;23;20393;-85
2021/06/12 15:15:00;;;;;;;2.70;2.53;;;;;;;;;;6167101;23;20430;-84
2021/06/12 15:17:27;;;;;;;6.67;3.00;;;;;;;;;;6185297;23;20382;-87